TimeEDT,TemperatureF,Dew PointF,Humidity,Sea Level PressureIn,VisibilityMPH,Wind Direction,Wind SpeedMPH,Gust SpeedMPH,PrecipitationIn,Events,Conditions,WindDirDegrees,DateUTC
7:52 AM,71.1,66.0,84,30.05,8.0,WSW,3.5,-,N/A,,Clear,250,2013-07-27 11:52:00
8:52 AM,73.0,66.0,79,30.06,9.0,SW,5.8,-,N/A,,Clear,220,2013-07-27 12:52:00
9:52 AM,73.9,66.0,76,30.06,9.0,SSW,8.1,-,N/A,,Clear,210,2013-07-27 13:52:00
10:52 AM,75.9,64.9,69,30.07,10.0,SSW,8.1,-,N/A,,Clear,210,2013-07-27 14:52:00
11:52 AM,79.0,64.0,60,30.07,10.0,SSW,8.1,-,N/A,,Clear,210,2013-07-27 15:52:00
12:52 PM,81.0,60.1,49,30.05,10.0,SW,8.1,-,N/A,,Clear,220,2013-07-27 16:52:00
1:52 PM,82.0,60.1,47,30.04,10.0,SSW,8.1,-,N/A,,Clear,200,2013-07-27 17:52:00
2:52 PM,80.1,64.0,58,30.03,10.0,SE,9.2,-,N/A,,Clear,140,2013-07-27 18:52:00
3:52 PM,80.1,64.0,58,30.02,10.0,SSE,8.1,-,N/A,,Clear,160,2013-07-27 19:52:00
4:52 PM,81.0,64.0,56,30.01,10.0,South,9.2,-,N/A,,Clear,180,2013-07-27 20:52:00
5:52 PM,78.1,64.9,64,29.99,10.0,South,8.1,-,N/A,,Clear,170,2013-07-27 21:52:00
6:52 PM,75.9,64.9,69,29.99,10.0,SSE,9.2,-,N/A,,Clear,160,2013-07-27 22:52:00
7:52 PM,75.0,64.0,69,30.00,10.0,SSE,10.4,-,N/A,,Clear,160,2013-07-27 23:52:00
8:52 PM,73.0,66.9,81,30.01,10.0,South,3.5,-,N/A,,Clear,170,2013-07-28 00:52:00
9:52 PM,72.0,68.0,87,30.02,10.0,Calm,Calm,-,N/A,,Mostly Cloudy,0,2013-07-28 01:52:00
10:10 PM,71.6,68.0,88,30.01,10.0,Calm,Calm,-,N/A,,Scattered Clouds,0,2013-07-28 02:10:00
10:52 PM,71.1,68.0,90,30.00,10.0,Calm,Calm,-,N/A,,Scattered Clouds,0,2013-07-28 02:52:00
11:00 PM,71.6,68.0,88,30.00,10.0,Calm,Calm,-,N/A,,Mostly Cloudy,0,2013-07-28 03:00:00
11:30 PM,71.6,68.0,88,29.99,10.0,Calm,Calm,-,N/A,,Mostly Cloudy,0,2013-07-28 03:30:00
11:37 PM,71.6,68.0,88,29.99,10.0,Calm,Calm,-,N/A,,Scattered Clouds,0,2013-07-28 03:37:00
11:52 PM,70.0,66.9,90,29.99,10.0,East,3.5,-,N/A,,Partly Cloudy,100,2013-07-28 03:52:00